Time;durP1;ratioP1;P1;durP2;ratioP2;P2;SDS_P1;SDS_P2;PMS_P1;PMS_P2;Temp;Humidity;BMP_temperature;BMP_pressure;BME280_temperature;BME280_humidity;BME280_pressure;Samples;Min_cycle;Max_cycle;Signal;HPM_P1;HPM_P2
2022/10/13 00:01:52;;;;;;;;;;;;;;;10.44;66.75391;101905.5;;;;-74
2022/10/13 00:05:34;;;;;;;13;5;;;;;;;;;;;;;-74
2022/10/13 00:06:52;;;;;;;;;;;;;;;10.46;67.27734;101905.6;;;;-75
2022/10/13 00:11:52;;;;;;;;;;;;;;;10.45;67.06641;101920;;;;-75
2022/10/13 00:16:52;;;;;;;;;;;;;;;10.45;67.53125;101920.1;;;;-75
2022/10/13 00:21:54;;;;;;;;;;;;;;;10.46;67.35547;101906.8;;;;-74
2022/10/13 00:26:52;;;;;;;;;;;;;;;10.46;67.98828;101902.4;;;;-75
2022/10/13 00:31:52;;;;;;;;;;;;;;;10.45;67.75488;101898;;;;-74
2022/10/13 00:35:35;;;;;;;13.6;5.6;;;;;;;;;;;;;-75
2022/10/13 00:36:52;;;;;;;;;;;;;;;10.46;67.47852;101899.5;;;;-74
2022/10/13 00:41:53;;;;;;;;;;;;;;;10.47;67.27832;101903.5;;;;-75
2022/10/13 00:46:52;;;;;;;;;;;;;;;10.46;67.64551;101910.3;;;;-74
2022/10/13 00:51:53;;;;;;;;;;;;;;;10.47;67.94629;101915.6;;;;-74
2022/10/13 00:56:53;;;;;;;;;;;;;;;10.47;67.88965;101910.5;;;;-75
2022/10/13 01:01:52;;;;;;;;;;;;;;;10.48;67.78125;101905.5;;;;-77
2022/10/13 01:05:35;;;;;;;9.7;4.6;;;;;;;;;;;;;-74
2022/10/13 01:06:52;;;;;;;;;;;;;;;10.48;67.16992;101894.7;;;;-73
2022/10/13 01:12:02;;;;;;;;;;;;;;;10.47;66.71484;101908.9;;;;-75
2022/10/13 01:16:55;;;;;;;;;;;;;;;10.47;66.8457;101912.4;;;;-74
2022/10/13 01:21:59;;;;;;;;;;;;;;;10.52;67.87695;101898.8;;;;-74
2022/10/13 01:27:03;;;;;;;;;;;;;;;10.55;67.54785;101890.6;;;;-74
2022/10/13 01:31:55;;;;;;;;;;;;;;;10.58;68.44141;101875.8;;;;-74
2022/10/13 01:35:43;;;;;;;10.3;5.1;;;;;;;;;;;;;-75
2022/10/13 01:36:56;;;;;;;;;;;;;;;10.62;67.53613;101882.1;;;;-75
2022/10/13 01:41:54;;;;;;;;;;;;;;;10.64;68.06055;101883.3;;;;-74
2022/10/13 01:46:56;;;;;;;;;;;;;;;10.65;68.70801;101879.7;;;;-73
2022/10/13 01:51:52;;;;;;;;;;;;;;;10.66;69.18652;101876.1;;;;-75
2022/10/13 01:56:59;;;;;;;;;;;;;;;10.68;69.16699;101869.9;;;;-74
2022/10/13 02:01:57;;;;;;;;;;;;;;;10.7;69.22754;101869.6;;;;-73
2022/10/13 02:05:41;;;;;;;13.9;6;;;;;;;;;;;;;-75
2022/10/13 02:06:55;;;;;;;;;;;;;;;10.73;69.98633;101858;;;;-74
2022/10/13 02:11:55;;;;;;;;;;;;;;;10.73;70.19727;101849.3;;;;-74
2022/10/13 02:16:54;;;;;;;;;;;;;;;10.78;70.7041;101849.2;;;;-74
2022/10/13 02:21:52;;;;;;;;;;;;;;;10.79;70.80566;101835.7;;;;-75
2022/10/13 02:26:54;;;;;;;;;;;;;;;10.82;71.31152;101827.2;;;;-75
2022/10/13 02:31:53;;;;;;;;;;;;;;;10.85;71.98145;101835.6;;;;-76
2022/10/13 02:35:37;;;;;;;12.8;6.3;;;;;;;;;;;;;-75
2022/10/13 02:36:52;;;;;;;;;;;;;;;10.86;70.92676;101833.9;;;;-74
2022/10/13 02:41:52;;;;;;;;;;;;;;;10.86;71.11621;101824.2;;;;-76
2022/10/13 02:46:52;;;;;;;;;;;;;;;10.87;69.94141;101820.1;;;;-74
2022/10/13 02:51:52;;;;;;;;;;;;;;;10.91;72.53613;101816.1;;;;-75
2022/10/13 02:56:53;;;;;;;;;;;;;;;10.95;73.62988;101809.9;;;;-73
2022/10/13 03:01:52;;;;;;;;;;;;;;;10.95;73.06348;101796.3;;;;-75
2022/10/13 03:05:38;;;;;;;14.4;6.9;;;;;;;;;;;;;-75
2022/10/13 03:06:52;;;;;;;;;;;;;;;10.98;72.25781;101781.8;;;;-75
2022/10/13 03:11:52;;;;;;;;;;;;;;;10.96;70.76758;101786.5;;;;-75
2022/10/13 03:16:53;;;;;;;;;;;;;;;10.99;71.21582;101786.6;;;;-75
2022/10/13 03:21:52;;;;;;;;;;;;;;;10.99;71.22852;101781.1;;;;-76
2022/10/13 03:26:52;;;;;;;;;;;;;;;11.01;71.62988;101789.2;;;;-75
2022/10/13 03:31:52;;;;;;;;;;;;;;;11.01;71.15332;101788.3;;;;-74
2022/10/13 03:35:39;;;;;;;12.4;6.1;;;;;;;;;;;;;-74
2022/10/13 03:36:52;;;;;;;;;;;;;;;11.02;71.66602;101780.7;;;;-74
2022/10/13 03:41:52;;;;;;;;;;;;;;;11.02;72.1084;101777.8;;;;-75
2022/10/13 03:46:52;;;;;;;;;;;;;;;11.02;72.63184;101773.3;;;;-74
2022/10/13 03:51:52;;;;;;;;;;;;;;;11.03;72.04492;101776;;;;-75
2022/10/13 03:56:52;;;;;;;;;;;;;;;11.07;73.2168;101771;;;;-75
2022/10/13 04:01:52;;;;;;;;;;;;;;;11.14;74.32617;101774.7;;;;-74
2022/10/13 04:05:40;;;;;;;16.7;7.7;;;;;;;;;;;;;-74
2022/10/13 04:06:52;;;;;;;;;;;;;;;11.18;74.60059;101766.6;;;;-74
2022/10/13 04:11:52;;;;;;;;;;;;;;;11.24;76.32031;101762.9;;;;-74
2022/10/13 04:16:52;;;;;;;;;;;;;;;11.28;76.29395;101759.9;;;;-74
2022/10/13 04:21:52;;;;;;;;;;;;;;;11.32;76.41211;101755.1;;;;-75
2022/10/13 04:26:52;;;;;;;;;;;;;;;11.35;76.79297;101741.5;;;;-74
2022/10/13 04:31:52;;;;;;;;;;;;;;;11.35;76.56152;101746.5;;;;-74
2022/10/13 04:35:41;;;;;;;17.9;8.7;;;;;;;;;;;;;-75
2022/10/13 04:36:52;;;;;;;;;;;;;;;11.36;76.55176;101732.2;;;;-74
2022/10/13 04:41:52;;;;;;;;;;;;;;;11.36;75.875;101733.5;;;;-75
2022/10/13 04:46:52;;;;;;;;;;;;;;;11.38;75.68945;101742.7;;;;-75
2022/10/13 04:51:52;;;;;;;;;;;;;;;11.38;75.72266;101754.1;;;;-74
2022/10/13 04:56:52;;;;;;;;;;;;;;;11.38;75.95605;101758.6;;;;-74
2022/10/13 05:01:55;;;;;;;;;;;;;;;11.4;74.78223;101751.1;;;;-75
2022/10/13 05:05:42;;;;;;;17;8.6;;;;;;;;;;;;;-75
2022/10/13 05:06:52;;;;;;;;;;;;;;;11.41;75.32617;101748.7;;;;-75
2022/10/13 05:11:53;;;;;;;;;;;;;;;11.45;76.41211;101749;;;;-75
2022/10/13 05:16:52;;;;;;;;;;;;;;;11.49;77.70605;101750.4;;;;-75
2022/10/13 05:21:52;;;;;;;;;;;;;;;11.51;77.61914;101746.1;;;;-76
2022/10/13 05:26:52;;;;;;;;;;;;;;;11.52;76.7793;101747.2;;;;-76
2022/10/13 05:31:52;;;;;;;;;;;;;;;11.55;78.30566;101747.8;;;;-73
2022/10/13 05:35:43;;;;;;;16.4;9.3;;;;;;;;;;;;;-74
2022/10/13 05:36:52;;;;;;;;;;;;;;;11.54;77.32813;101751.7;;;;-75
2022/10/13 05:41:52;;;;;;;;;;;;;;;11.57;78.06543;101743;;;;-75
2022/10/13 05:46:52;;;;;;;;;;;;;;;11.58;78.83203;101741.3;;;;-73
2022/10/13 05:51:53;;;;;;;;;;;;;;;11.59;78.21289;101738.6;;;;-76
2022/10/13 05:56:54;;;;;;;;;;;;;;;11.58;77.95508;101731.7;;;;-76
2022/10/13 06:01:52;;;;;;;;;;;;;;;11.6;78.13672;101730.4;;;;-74
2022/10/13 06:05:46;;;;;;;18.6;9.8;;;;;;;;;;;;;-75
2022/10/13 06:06:52;;;;;;;;;;;;;;;11.61;78.42676;101726.5;;;;-74
2022/10/13 06:11:52;;;;;;;;;;;;;;;11.65;79.71094;101730.3;;;;-75
2022/10/13 06:16:53;;;;;;;;;;;;;;;11.69;79.37207;101734.6;;;;-74
2022/10/13 06:21:52;;;;;;;;;;;;;;;11.73;79.53711;101725.1;;;;-76
2022/10/13 06:26:52;;;;;;;;;;;;;;;11.78;80.54395;101724.9;;;;-75
2022/10/13 06:31:55;;;;;;;;;;;;;;;11.8;80.43652;101716.2;;;;-76
2022/10/13 06:35:46;;;;;;;20.6;11.1;;;;;;;;;;;;;-75
2022/10/13 06:36:52;;;;;;;;;;;;;;;11.83;80.81836;101713.4;;;;-76
2022/10/13 06:41:53;;;;;;;;;;;;;;;11.9;81.77539;101716.4;;;;-76
2022/10/13 06:46:52;;;;;;;;;;;;;;;11.92;81.08105;101718.3;;;;-78
2022/10/13 06:51:52;;;;;;;;;;;;;;;11.95;81.55273;101716.3;;;;-80
2022/10/13 06:56:52;;;;;;;;;;;;;;;11.99;82.48145;101712.6;;;;-76
2022/10/13 07:01:52;;;;;;;;;;;;;;;12.02;82.54199;101721.2;;;;-74
2022/10/13 07:05:47;;;;;;;20.2;11.7;;;;;;;;;;;;;-75
2022/10/13 07:06:52;;;;;;;;;;;;;;;12.09;83.35449;101721.3;;;;-74
2022/10/13 07:11:52;;;;;;;;;;;;;;;12.13;83.81445;101722.8;;;;-74
2022/10/13 07:16:52;;;;;;;;;;;;;;;12.14;84.28223;101719.8;;;;-75
2022/10/13 07:21:52;;;;;;;;;;;;;;;12.14;83.25098;101716;;;;-74
2022/10/13 07:26:52;;;;;;;;;;;;;;;12.15;83.11035;101713.4;;;;-75
2022/10/13 07:31:52;;;;;;;;;;;;;;;12.18;83.49023;101712.4;;;;-73
2022/10/13 07:35:48;;;;;;;21.1;11.2;;;;;;;;;;;;;-74
2022/10/13 07:36:52;;;;;;;;;;;;;;;12.2;82.54102;101712;;;;-75
2022/10/13 07:41:52;;;;;;;;;;;;;;;12.24;82.12695;101707.1;;;;-72
2022/10/13 07:46:52;;;;;;;;;;;;;;;12.29;82.50293;101714.9;;;;-75
2022/10/13 07:51:53;;;;;;;;;;;;;;;12.32;82.69727;101708.1;;;;-75
2022/10/13 07:56:53;;;;;;;;;;;;;;;12.36;82.17285;101716.3;;;;-74
2022/10/13 08:01:52;;;;;;;;;;;;;;;12.44;82.78711;101713.5;;;;-75
2022/10/13 08:05:49;;;;;;;19.2;10.6;;;;;;;;;;;;;-74
2022/10/13 08:06:52;;;;;;;;;;;;;;;12.5;82.12012;101718.1;;;;-75
2022/10/13 08:11:52;;;;;;;;;;;;;;;12.58;82.17969;101716.8;;;;-76
2022/10/13 08:16:52;;;;;;;;;;;;;;;12.66;82.60449;101725.5;;;;-76
2022/10/13 08:21:52;;;;;;;;;;;;;;;12.73;83.2959;101725.6;;;;-73
2022/10/13 08:26:52;;;;;;;;;;;;;;;12.75;82.62207;101717.6;;;;-75
2022/10/13 08:31:52;;;;;;;;;;;;;;;12.79;81.4873;101723;;;;-74
2022/10/13 08:35:50;;;;;;;17.5;10.2;;;;;;;;;;;;;-74
2022/10/13 08:36:53;;;;;;;;;;;;;;;12.84;81.75098;101727.8;;;;-74
2022/10/13 08:41:52;;;;;;;;;;;;;;;12.9;84.17383;101724.2;;;;-74
2022/10/13 08:46:57;;;;;;;;;;;;;;;12.93;81.78906;101720.1;;;;-74
2022/10/13 08:51:52;;;;;;;;;;;;;;;13.03;83.36426;101723.6;;;;-74
2022/10/13 08:56:52;;;;;;;;;;;;;;;13.11;84.10449;101727.5;;;;-74
2022/10/13 09:01:55;;;;;;;;;;;;;;;13.12;82.80273;101719.7;;;;-74
2022/10/13 09:05:58;;;;;;;18.1;10.4;;;;;;;;;;;;;-74
2022/10/13 09:06:55;;;;;;;;;;;;;;;13.15;82.6084;101721.3;;;;-74
2022/10/13 09:11:53;;;;;;;;;;;;;;;13.19;82.14941;101718.9;;;;-74
2022/10/13 09:16:52;;;;;;;;;;;;;;;13.23;80.39746;101716.2;;;;-74
2022/10/13 09:21:52;;;;;;;;;;;;;;;13.31;81.34766;101715.1;;;;-74
2022/10/13 09:26:53;;;;;;;;;;;;;;;13.36;81.66992;101711.8;;;;-75
2022/10/13 09:31:52;;;;;;;;;;;;;;;13.44;79.24512;101709.9;;;;-75
2022/10/13 09:36:05;;;;;;;14.4;8.7;;;;;;;;;;;;;-75
2022/10/13 09:37:05;;;;;;;;;;;;;;;13.53;78.79199;101715;;;;-75
2022/10/13 09:41:52;;;;;;;;;;;;;;;13.59;78.56934;101720.1;;;;-74
2022/10/13 09:46:53;;;;;;;;;;;;;;;13.6;77.91309;101719.2;;;;-75
2022/10/13 09:51:52;;;;;;;;;;;;;;;13.62;77.96094;101711.1;;;;-75
2022/10/13 09:56:56;;;;;;;;;;;;;;;13.66;77.17578;101713.3;;;;-75
2022/10/13 10:01:53;;;;;;;;;;;;;;;13.69;77.74902;101725.7;;;;-75
2022/10/13 10:05:55;;;;;;;13.2;7.5;;;;;;;;;;;;;-75
2022/10/13 10:06:52;;;;;;;;;;;;;;;13.7;78.49805;101727.9;;;;-75
2022/10/13 10:11:54;;;;;;;;;;;;;;;13.65;80.85352;101735.3;;;;-74
2022/10/13 10:16:54;;;;;;;;;;;;;;;13.6;80.91016;101727.6;;;;-74
2022/10/13 10:21:57;;;;;;;;;;;;;;;13.6;81.23438;101732.8;;;;-76
2022/10/13 10:26:56;;;;;;;;;;;;;;;13.58;80.01563;101726.3;;;;-75
2022/10/13 10:32:06;;;;;;;;;;;;;;;13.58;79.625;101721.2;;;;-76
2022/10/13 10:36:00;;;;;;;12;7.3;;;;;;;;;;;;;-75
2022/10/13 10:36:54;;;;;;;;;;;;;;;13.63;78.21973;101715.5;;;;-76
2022/10/13 10:41:56;;;;;;;;;;;;;;;13.73;77.60156;101718;;;;-76
2022/10/13 10:46:57;;;;;;;;;;;;;;;13.79;76.83105;101713.8;;;;-75
2022/10/13 10:51:52;;;;;;;;;;;;;;;13.85;76.43945;101706.9;;;;-76
2022/10/13 10:56:56;;;;;;;;;;;;;;;13.89;75.9668;101700.3;;;;-75
2022/10/13 11:01:59;;;;;;;;;;;;;;;13.93;75.21289;101703.2;;;;-75
2022/10/13 11:06:10;;;;;;;7.9;4;;;;;;;;;;;;;-76
2022/10/13 11:06:52;;;;;;;;;;;;;;;13.94;75.6416;101699.9;;;;-76
2022/10/13 11:11:52;;;;;;;;;;;;;;;13.95;75.08301;101690.9;;;;-75
2022/10/13 11:17:36;;;;;;;;;;;;;;;14.08;74.53711;101685.7;;;;-75
2022/10/13 11:22:09;;;;;;;;;;;;;;;14.01;74.41309;101677.4;;;;-75
2022/10/13 11:26:49;;;;;;;;;;;;;;;14.05;74.10547;101681.8;;;;-75
2022/10/13 11:31:56;;;;;;;;;;;;;;;14.13;73.51563;101676.9;;;;-75
2022/10/13 11:35:58;;;;;;;6.2;3.1;;;;;;;;;;;;;-75
2022/10/13 11:36:58;;;;;;;;;;;;;;;14.22;73.02832;101677;;;;-76
2022/10/13 11:41:55;;;;;;;;;;;;;;;14.28;72.8252;101675.2;;;;-75
2022/10/13 11:46:58;;;;;;;;;;;;;;;14.31;73.11035;101668.8;;;;-76
2022/10/13 11:52:00;;;;;;;;;;;;;;;14.33;73.34863;101664.8;;;;-74
2022/10/13 11:56:52;;;;;;;;;;;;;;;14.35;73.55273;101653.8;;;;-76
2022/10/13 12:01:50;;;;;;;;;;;;;;;14.39;73.11133;101642.8;;;;-75
2022/10/13 12:06:02;;;;;;;4.9;2.5;;;;;;;;;;;;;-76
2022/10/13 12:06:51;;;;;;;;;;;;;;;14.42;72.625;101647.9;;;;-75
2022/10/13 12:11:50;;;;;;;;;;;;;;;14.45;72.30469;101648.5;;;;-75
2022/10/13 12:16:58;;;;;;;;;;;;;;;14.51;72.00195;101645.3;;;;-76
2022/10/13 12:21:55;;;;;;;;;;;;;;;14.58;71.75586;101638.4;;;;-75
2022/10/13 12:26:48;;;;;;;;;;;;;;;14.7;71.62891;101628.7;;;;-76
2022/10/13 12:31:52;;;;;;;;;;;;;;;14.79;71.5332;101625.9;;;;-75
2022/10/13 12:36:12;;;;;;;3.1;1.9;;;;;;;;;;;;;-75
2022/10/13 12:36:49;;;;;;;;;;;;;;;14.89;71.39258;101628.9;;;;-75
2022/10/13 12:41:50;;;;;;;;;;;;;;;14.94;71.29883;101634.7;;;;-75
2022/10/13 12:46:51;;;;;;;;;;;;;;;14.93;72.0918;101637;;;;-76
2022/10/13 12:51:50;;;;;;;;;;;;;;;14.91;72.7168;101639.3;;;;-75
2022/10/13 12:56:49;;;;;;;;;;;;;;;14.86;73.02344;101642.6;;;;-75
2022/10/13 13:01:54;;;;;;;;;;;;;;;14.83;74.37207;101642.1;;;;-75
2022/10/13 13:06:24;;;;;;;4.8;2.2;;;;;;;;;;;;;-75
2022/10/13 13:06:57;;;;;;;;;;;;;;;14.79;74.47754;101644.8;;;;-75
2022/10/13 13:11:48;;;;;;;;;;;;;;;14.77;73.86816;101647.5;;;;-74
2022/10/13 13:16:58;;;;;;;;;;;;;;;14.73;73.45996;101639.1;;;;-75
2022/10/13 13:21:49;;;;;;;;;;;;;;;14.69;73.38672;101633.3;;;;-74
2022/10/13 13:26:49;;;;;;;;;;;;;;;14.68;73.24902;101628.8;;;;-75
2022/10/13 13:31:48;;;;;;;;;;;;;;;14.67;72.88965;101618.5;;;;-73
2022/10/13 13:36:04;;;;;;;2.9;1.6;;;;;;;;;;;;;-74
2022/10/13 13:36:50;;;;;;;;;;;;;;;14.67;72.6543;101618.6;;;;-74
2022/10/13 13:41:50;;;;;;;;;;;;;;;14.64;72.66113;101624;;;;-76
2022/10/13 13:46:48;;;;;;;;;;;;;;;14.61;72.90234;101622.7;;;;-74
2022/10/13 13:51:48;;;;;;;;;;;;;;;14.57;73.30957;101629;;;;-75
2022/10/13 13:56:48;;;;;;;;;;;;;;;14.52;73.72656;101631.7;;;;-75
2022/10/13 14:01:49;;;;;;;;;;;;;;;14.45;73.9043;101628.5;;;;-74
2022/10/13 14:06:06;;;;;;;4.3;1.8;;;;;;;;;;;;;-75
2022/10/13 14:06:48;;;;;;;;;;;;;;;14.41;74.13379;101624.3;;;;-75
2022/10/13 14:11:48;;;;;;;;;;;;;;;14.36;74.25977;101623;;;;-74
2022/10/13 14:16:48;;;;;;;;;;;;;;;14.33;73.90625;101624.9;;;;-76
2022/10/13 14:21:48;;;;;;;;;;;;;;;14.29;73.83398;101623.4;;;;-75
2022/10/13 14:26:48;;;;;;;;;;;;;;;14.26;74.09766;101629.1;;;;-74
2022/10/13 14:31:48;;;;;;;;;;;;;;;14.19;74.45508;101625.7;;;;-74
2022/10/13 14:36:09;;;;;;;3.5;1.6;;;;;;;;;;;;;-74
2022/10/13 14:36:48;;;;;;;;;;;;;;;14.1;74.7168;101623.2;;;;-75
2022/10/13 14:41:49;;;;;;;;;;;;;;;14.01;74.49121;101623.9;;;;-71
2022/10/13 14:46:48;;;;;;;;;;;;;;;13.94;74.51367;101625.3;;;;-70
2022/10/13 14:51:48;;;;;;;;;;;;;;;13.88;74.51367;101622.2;;;;-70
2022/10/13 14:56:48;;;;;;;;;;;;;;;13.85;74.47461;101613.4;;;;-75
2022/10/13 15:01:49;;;;;;;;;;;;;;;13.81;74.48047;101604.9;;;;-74
2022/10/13 15:06:09;;;;;;;1.8;1;;;;;;;;;;;;;-75
2022/10/13 15:06:48;;;;;;;;;;;;;;;13.79;74.38672;101597.4;;;;-73
2022/10/13 15:11:49;;;;;;;;;;;;;;;13.79;73.99414;101595.2;;;;-75
2022/10/13 15:16:48;;;;;;;;;;;;;;;13.77;73.81445;101592.8;;;;-75
2022/10/13 15:21:48;;;;;;;;;;;;;;;13.76;73.69922;101586.5;;;;-74
2022/10/13 15:26:49;;;;;;;;;;;;;;;13.75;73.58594;101585.9;;;;-74
2022/10/13 15:31:48;;;;;;;;;;;;;;;13.74;73.39648;101584.5;;;;-74
2022/10/13 15:36:11;;;;;;;1.4;0.9;;;;;;;;;;;;;-75
2022/10/13 15:36:48;;;;;;;;;;;;;;;13.74;73.38379;101586.4;;;;-74
2022/10/13 15:41:48;;;;;;;;;;;;;;;13.73;73.52734;101584.8;;;;-74
2022/10/13 15:46:48;;;;;;;;;;;;;;;13.71;74.3623;101584.1;;;;-75
2022/10/13 15:51:48;;;;;;;;;;;;;;;13.68;73.9873;101578.1;;;;-75
2022/10/13 15:56:48;;;;;;;;;;;;;;;13.64;74.34961;101571.2;;;;-74
2022/10/13 16:01:48;;;;;;;;;;;;;;;13.6;73.77441;101570.7;;;;-75
2022/10/13 16:06:13;;;;;;;4.2;1.2;;;;;;;;;;;;;-75
2022/10/13 16:06:48;;;;;;;;;;;;;;;13.57;73.76953;101561;;;;-70
2022/10/13 16:11:48;;;;;;;;;;;;;;;13.52;73.62695;101568.4;;;;-70
2022/10/13 16:16:48;;;;;;;;;;;;;;;13.45;73.50293;101570.2;;;;-75
2022/10/13 16:21:49;;;;;;;;;;;;;;;13.35;73.63281;101574.1;;;;-75
2022/10/13 16:26:49;;;;;;;;;;;;;;;13.27;73.76367;101570.2;;;;-75
2022/10/13 16:31:48;;;;;;;;;;;;;;;13.19;73.93945;101574.3;;;;-73
2022/10/13 16:36:14;;;;;;;2.3;1.2;;;;;;;;;;;;;-75
2022/10/13 16:36:49;;;;;;;;;;;;;;;13.1;73.83496;101578.3;;;;-75
2022/10/13 16:41:50;;;;;;;;;;;;;;;13.01;74.19922;101591.7;;;;-75
2022/10/13 16:46:50;;;;;;;;;;;;;;;12.92;74.2168;101584.8;;;;-75
2022/10/13 16:51:48;;;;;;;;;;;;;;;12.86;74.51855;101596.7;;;;-75
2022/10/13 16:56:50;;;;;;;;;;;;;;;12.78;74.59473;101602.8;;;;-74
2022/10/13 17:01:48;;;;;;;;;;;;;;;12.72;74.68457;101610.6;;;;-75
2022/10/13 17:06:15;;;;;;;1.9;1.1;;;;;;;;;;;;;-75
2022/10/13 17:06:48;;;;;;;;;;;;;;;12.62;74.38867;101612.6;;;;-75
2022/10/13 17:11:48;;;;;;;;;;;;;;;12.54;74.69824;101621.6;;;;-75
2022/10/13 17:16:48;;;;;;;;;;;;;;;12.44;74.37109;101628.4;;;;-74
2022/10/13 17:21:50;;;;;;;;;;;;;;;12.35;74.19922;101638.9;;;;-74
2022/10/13 17:26:48;;;;;;;;;;;;;;;12.28;74.53223;101646.4;;;;-74
2022/10/13 17:31:48;;;;;;;;;;;;;;;12.23;74.47852;101643.1;;;;-75
2022/10/13 17:36:16;;;;;;;3.5;1.2;;;;;;;;;;;;;-73
2022/10/13 17:36:48;;;;;;;;;;;;;;;12.18;74.33691;101644.6;;;;-75
2022/10/13 17:41:48;;;;;;;;;;;;;;;12.11;74.38086;101647.6;;;;-76
2022/10/13 17:46:49;;;;;;;;;;;;;;;12.05;74.53711;101640;;;;-74
2022/10/13 17:51:48;;;;;;;;;;;;;;;11.99;74.42773;101646;;;;-75
2022/10/13 17:56:49;;;;;;;;;;;;;;;11.96;74.4541;101647.3;;;;-75
2022/10/13 18:01:48;;;;;;;;;;;;;;;11.89;74.47852;101645.7;;;;-75
2022/10/13 18:06:16;;;;;;;2.6;1.3;;;;;;;;;;;;;-76
2022/10/13 18:06:48;;;;;;;;;;;;;;;11.77;74.55664;101641.8;;;;-75
2022/10/13 18:11:49;;;;;;;;;;;;;;;11.66;74.44922;101646;;;;-76
2022/10/13 18:16:48;;;;;;;;;;;;;;;11.55;74.86426;101651.9;;;;-75
2022/10/13 18:21:48;;;;;;;;;;;;;;;11.45;75.26855;101658.3;;;;-76
2022/10/13 18:26:49;;;;;;;;;;;;;;;11.36;74.89648;101670;;;;-74
2022/10/13 18:31:57;;;;;;;;;;;;;;;11.28;74.90625;101665.9;;;;-74
2022/10/13 18:36:22;;;;;;;2.8;1.4;;;;;;;;;;;;;-70
2022/10/13 18:36:50;;;;;;;;;;;;;;;11.2;75.125;101671.6;;;;-72
2022/10/13 18:41:48;;;;;;;;;;;;;;;11.1;75.23047;101676.7;;;;-71
2022/10/13 18:46:51;;;;;;;;;;;;;;;10.98;75.06543;101669.2;;;;-70
2022/10/13 18:51:48;;;;;;;;;;;;;;;10.87;75.25781;101667;;;;-71
2022/10/13 18:56:48;;;;;;;;;;;;;;;10.8;74.99023;101665.3;;;;-71
2022/10/13 19:01:49;;;;;;;;;;;;;;;10.71;75.04102;101668.8;;;;-72
2022/10/13 19:06:18;;;;;;;3.8;1.7;;;;;;;;;;;;;-70
2022/10/13 19:06:48;;;;;;;;;;;;;;;10.6;75.19922;101671.8;;;;-71
2022/10/13 19:11:49;;;;;;;;;;;;;;;10.52;75.3291;101670.1;;;;-70
2022/10/13 19:16:48;;;;;;;;;;;;;;;10.4;75.57617;101670.6;;;;-71
2022/10/13 19:21:48;;;;;;;;;;;;;;;10.31;75.39453;101656;;;;-74
2022/10/13 19:26:48;;;;;;;;;;;;;;;10.24;75.4248;101668.7;;;;-74
2022/10/13 19:31:48;;;;;;;;;;;;;;;10.17;75.34766;101671.1;;;;-75
2022/10/13 19:36:24;;;;;;;3.7;2.2;;;;;;;;;;;;;-75
2022/10/13 19:36:49;;;;;;;;;;;;;;;10.07;75.5625;101667.7;;;;-74
2022/10/13 19:41:49;;;;;;;;;;;;;;;9.99;75.80176;101666.9;;;;-74
2022/10/13 19:46:49;;;;;;;;;;;;;;;9.99;75.76953;101672.8;;;;-76
2022/10/13 19:51:48;;;;;;;;;;;;;;;9.93;75.86914;101674.6;;;;-75
2022/10/13 19:56:50;;;;;;;;;;;;;;;9.88;75.94043;101677.2;;;;-76
2022/10/13 20:01:48;;;;;;;;;;;;;;;9.84;75.98633;101679.8;;;;-75
2022/10/13 20:06:20;;;;;;;5.7;3.1;;;;;;;;;;;;;-76
2022/10/13 20:06:48;;;;;;;;;;;;;;;9.81;76.44629;101685.8;;;;-75
2022/10/13 20:11:51;;;;;;;;;;;;;;;9.75;75.9834;101693.8;;;;-76
2022/10/13 20:16:49;;;;;;;;;;;;;;;9.74;76.43359;101698;;;;-74
2022/10/13 20:21:50;;;;;;;;;;;;;;;9.69;75.9502;101692;;;;-75
2022/10/13 20:26:49;;;;;;;;;;;;;;;9.67;76.18945;101689.8;;;;-75
2022/10/13 20:31:59;;;;;;;;;;;;;;;9.62;75.81738;101690.8;;;;-76
2022/10/13 20:36:22;;;;;;;5.9;3;;;;;;;;;;;;;-76
2022/10/13 20:36:48;;;;;;;;;;;;;;;9.59;75.83301;101683.8;;;;-76
2022/10/13 20:41:49;;;;;;;;;;;;;;;9.55;75.85938;101691;;;;-75
2022/10/13 20:46:48;;;;;;;;;;;;;;;9.51;75.47656;101689.4;;;;-76
2022/10/13 20:51:48;;;;;;;;;;;;;;;9.51;75.71875;101685.1;;;;-75
2022/10/13 20:56:48;;;;;;;;;;;;;;;9.48;75.83789;101693.9;;;;-73
2022/10/13 21:01:48;;;;;;;;;;;;;;;9.46;75.58984;101693.9;;;;-75
2022/10/13 21:06:20;;;;;;;7;3.6;;;;;;;;;;;;;-74
2022/10/13 21:06:48;;;;;;;;;;;;;;;9.44;75.4209;101689.9;;;;-75
2022/10/13 21:11:49;;;;;;;;;;;;;;;9.46;75.19141;101692.9;;;;-76
2022/10/13 21:16:48;;;;;;;;;;;;;;;9.37;75.2207;101687.8;;;;-71
2022/10/13 21:21:48;;;;;;;;;;;;;;;9.36;75.20801;101685.6;;;;-75
2022/10/13 21:26:48;;;;;;;;;;;;;;;9.32;75.16699;101683.7;;;;-75
2022/10/13 21:32:10;;;;;;;;;;;;;;;9.33;75.37988;101680.6;;;;-75
2022/10/13 21:36:00;;;;;;;;;;;;;;;9.24;75.38672;101677.9;;;;-76
2022/10/13 21:36:22;;;;;;;5.8;3.2;;;;;;;;;;;;;-75
2022/10/13 21:40:59;;;;;;;;;;;;;;;9.23;75.27441;101679.5;;;;-74
2022/10/13 21:45:59;;;;;;;;;;;;;;;9.25;76.01758;101679.1;;;;-76
2022/10/13 21:51:00;;;;;;;;;;;;;;;9.28;75.37207;101674.5;;;;-74
2022/10/13 21:56:06;;;;;;;;;;;;;;;9.33;75.96582;101670.3;;;;-75
2022/10/13 22:01:01;;;;;;;;;;;;;;;9.39;75.25781;101665.2;;;;-74
2022/10/13 22:06:01;;;;;;;;;;;;;;;9.4;75.50293;101661.2;;;;-76
2022/10/13 22:06:21;;;;;;;7.3;4.1;;;;;;;;;;;;;-75
2022/10/13 22:11:03;;;;;;;;;;;;;;;9.47;75.29102;101661.3;;;;-74
2022/10/13 22:16:04;;;;;;;;;;;;;;;9.52;75.32422;101660.5;;;;-75
2022/10/13 22:21:02;;;;;;;;;;;;;;;9.52;75.20117;101655.8;;;;-75
2022/10/13 22:26:00;;;;;;;;;;;;;;;9.51;75.6748;101656.2;;;;-73
2022/10/13 22:31:00;;;;;;;;;;;;;;;9.46;75.20313;101667;;;;-74
2022/10/13 22:35:59;;;;;;;;;;;;;;;9.42;74.98633;101663.3;;;;-75
2022/10/13 22:36:22;;;;;;;8.4;4.2;;;;;;;;;;;;;-74
2022/10/13 22:41:03;;;;;;;;;;;;;;;9.36;75.03125;101659.2;;;;-74
2022/10/13 22:46:00;;;;;;;;;;;;;;;9.29;75.21777;101657.4;;;;-74
2022/10/13 22:50:59;;;;;;;;;;;;;;;9.24;74.97559;101654.4;;;;-76
2022/10/13 22:55:59;;;;;;;;;;;;;;;9.16;74.89746;101652.8;;;;-74
2022/10/13 23:00:59;;;;;;;;;;;;;;;9.12;75.0791;101645.6;;;;-75
2022/10/13 23:05:59;;;;;;;;;;;;;;;9.07;74.77051;101643.1;;;;-75
2022/10/13 23:06:23;;;;;;;7.2;3.7;;;;;;;;;;;;;-75
2022/10/13 23:11:00;;;;;;;;;;;;;;;9.02;74.88281;101636.6;;;;-75
2022/10/13 23:16:03;;;;;;;;;;;;;;;8.96;74.8291;101633;;;;-76
2022/10/13 23:20:59;;;;;;;;;;;;;;;8.9;74.78711;101625.8;;;;-75
2022/10/13 23:26:03;;;;;;;;;;;;;;;8.87;75.0127;101623.3;;;;-74
2022/10/13 23:31:01;;;;;;;;;;;;;;;8.89;74.86133;101619.3;;;;-75
2022/10/13 23:36:03;;;;;;;;;;;;;;;8.8;74.99023;101614.1;;;;-73
2022/10/13 23:36:23;;;;;;;6.3;3.5;;;;;;;;;;;;;-75
2022/10/13 23:41:04;;;;;;;;;;;;;;;8.78;74.86426;101613.3;;;;-75
2022/10/13 23:45:59;;;;;;;;;;;;;;;8.75;75.20313;101613.9;;;;-75
2022/10/13 23:50:59;;;;;;;;;;;;;;;8.71;74.88477;101604.1;;;;-76
2022/10/13 23:55:59;;;;;;;;;;;;;;;8.7;74.91797;101609.1;;;;-74
